sensor_id;sensor_type;location;lat;lon;timestamp;P1;durP1;ratioP1;P2;durP2;ratioP2
43449;SDS011;29041;42.266;23.110;2023-07-31T00:00:54;2.35;;;1.80;;
43449;SDS011;29041;42.266;23.110;2023-07-31T00:03:42;3.38;;;2.15;;
43449;SDS011;29041;42.266;23.110;2023-07-31T00:06:29;2.63;;;1.70;;
43449;SDS011;29041;42.266;23.110;2023-07-31T00:09:16;2.35;;;1.90;;
43449;SDS011;29041;42.266;23.110;2023-07-31T00:12:04;2.28;;;1.45;;
43449;SDS011;29041;42.266;23.110;2023-07-31T00:14:52;2.67;;;1.73;;
43449;SDS011;29041;42.266;23.110;2023-07-31T00:17:39;2.63;;;1.70;;
43449;SDS011;29041;42.266;23.110;2023-07-31T00:20:27;1.77;;;1.60;;
43449;SDS011;29041;42.266;23.110;2023-07-31T00:23:14;3.45;;;2.13;;
43449;SDS011;29041;42.266;23.110;2023-07-31T00:26:02;5.10;;;1.65;;
43449;SDS011;29041;42.266;23.110;2023-07-31T00:28:49;5.28;;;2.38;;
43449;SDS011;29041;42.266;23.110;2023-07-31T00:31:36;2.47;;;2.10;;
43449;SDS011;29041;42.266;23.110;2023-07-31T00:34:23;3.40;;;1.83;;
43449;SDS011;29041;42.266;23.110;2023-07-31T00:37:12;1.88;;;1.38;;
43449;SDS011;29041;42.266;23.110;2023-07-31T00:39:59;4.03;;;1.85;;
43449;SDS011;29041;42.266;23.110;2023-07-31T00:42:46;6.97;;;2.60;;
43449;SDS011;29041;42.266;23.110;2023-07-31T00:45:33;3.70;;;1.90;;
43449;SDS011;29041;42.266;23.110;2023-07-31T00:48:20;1.58;;;1.40;;
43449;SDS011;29041;42.266;23.110;2023-07-31T00:51:08;4.43;;;2.22;;
43449;SDS011;29041;42.266;23.110;2023-07-31T00:53:57;2.35;;;1.60;;
43449;SDS011;29041;42.266;23.110;2023-07-31T00:56:45;4.32;;;1.80;;
43449;SDS011;29041;42.266;23.110;2023-07-31T00:59:34;2.88;;;1.67;;
43449;SDS011;29041;42.266;23.110;2023-07-31T01:02:21;3.75;;;2.25;;
43449;SDS011;29041;42.266;23.110;2023-07-31T01:05:08;4.70;;;1.70;;
43449;SDS011;29041;42.266;23.110;2023-07-31T01:07:56;2.67;;;1.73;;
43449;SDS011;29041;42.266;23.110;2023-07-31T01:10:53;3.08;;;1.98;;
43449;SDS011;29041;42.266;23.110;2023-07-31T01:13:46;2.80;;;2.20;;
43449;SDS011;29041;42.266;23.110;2023-07-31T01:16:33;3.30;;;1.55;;
43449;SDS011;29041;42.266;23.110;2023-07-31T01:19:21;2.72;;;2.00;;
43449;SDS011;29041;42.266;23.110;2023-07-31T01:22:22;2.08;;;1.80;;
43449;SDS011;29041;42.266;23.110;2023-07-31T01:25:21;2.22;;;1.70;;
43449;SDS011;29041;42.266;23.110;2023-07-31T01:28:37;2.38;;;1.58;;
43449;SDS011;29041;42.266;23.110;2023-07-31T01:31:30;3.53;;;2.00;;
43449;SDS011;29041;42.266;23.110;2023-07-31T01:34:19;2.90;;;1.70;;
43449;SDS011;29041;42.266;23.110;2023-07-31T01:37:08;2.72;;;1.65;;
43449;SDS011;29041;42.266;23.110;2023-07-31T01:39:55;1.75;;;1.65;;
43449;SDS011;29041;42.266;23.110;2023-07-31T01:42:44;2.78;;;1.98;;
43449;SDS011;29041;42.266;23.110;2023-07-31T01:45:31;2.75;;;1.83;;
43449;SDS011;29041;42.266;23.110;2023-07-31T01:48:18;2.78;;;2.25;;
43449;SDS011;29041;42.266;23.110;2023-07-31T01:51:05;1.92;;;1.70;;
43449;SDS011;29041;42.266;23.110;2023-07-31T01:53:52;2.28;;;2.00;;
43449;SDS011;29041;42.266;23.110;2023-07-31T01:56:39;1.70;;;1.50;;
43449;SDS011;29041;42.266;23.110;2023-07-31T01:59:28;2.75;;;2.17;;
43449;SDS011;29041;42.266;23.110;2023-07-31T02:02:15;3.55;;;2.33;;
43449;SDS011;29041;42.266;23.110;2023-07-31T02:05:02;6.88;;;2.28;;
43449;SDS011;29041;42.266;23.110;2023-07-31T02:07:50;2.45;;;2.22;;
43449;SDS011;29041;42.266;23.110;2023-07-31T02:10:37;4.20;;;3.22;;
43449;SDS011;29041;42.266;23.110;2023-07-31T02:13:24;4.07;;;2.78;;
43449;SDS011;29041;42.266;23.110;2023-07-31T02:16:12;3.35;;;2.42;;
43449;SDS011;29041;42.266;23.110;2023-07-31T02:18:59;4.40;;;2.90;;
43449;SDS011;29041;42.266;23.110;2023-07-31T02:21:46;3.95;;;3.22;;
43449;SDS011;29041;42.266;23.110;2023-07-31T02:24:33;3.28;;;2.72;;
43449;SDS011;29041;42.266;23.110;2023-07-31T02:27:20;4.57;;;3.53;;
43449;SDS011;29041;42.266;23.110;2023-07-31T02:30:12;5.55;;;4.07;;
43449;SDS011;29041;42.266;23.110;2023-07-31T02:33:01;5.40;;;3.60;;
43449;SDS011;29041;42.266;23.110;2023-07-31T02:35:48;4.22;;;3.10;;
43449;SDS011;29041;42.266;23.110;2023-07-31T02:38:35;3.70;;;3.08;;
43449;SDS011;29041;42.266;23.110;2023-07-31T02:41:22;5.47;;;3.35;;
43449;SDS011;29041;42.266;23.110;2023-07-31T02:44:09;4.50;;;3.22;;
43449;SDS011;29041;42.266;23.110;2023-07-31T02:46:59;3.80;;;2.53;;
43449;SDS011;29041;42.266;23.110;2023-07-31T02:49:47;3.50;;;3.03;;
43449;SDS011;29041;42.266;23.110;2023-07-31T02:52:34;3.70;;;3.25;;
43449;SDS011;29041;42.266;23.110;2023-07-31T02:55:21;4.20;;;2.88;;
43449;SDS011;29041;42.266;23.110;2023-07-31T02:58:08;4.65;;;3.55;;
43449;SDS011;29041;42.266;23.110;2023-07-31T03:00:55;6.38;;;4.15;;
43449;SDS011;29041;42.266;23.110;2023-07-31T03:03:44;5.57;;;4.05;;
43449;SDS011;29041;42.266;23.110;2023-07-31T03:06:33;9.07;;;4.63;;
43449;SDS011;29041;42.266;23.110;2023-07-31T03:09:20;7.85;;;4.70;;
43449;SDS011;29041;42.266;23.110;2023-07-31T03:12:07;7.45;;;4.72;;
43449;SDS011;29041;42.266;23.110;2023-07-31T03:14:55;6.07;;;4.97;;
43449;SDS011;29041;42.266;23.110;2023-07-31T03:17:42;5.93;;;4.78;;
43449;SDS011;29041;42.266;23.110;2023-07-31T03:20:29;7.95;;;5.38;;
43449;SDS011;29041;42.266;23.110;2023-07-31T03:23:18;6.93;;;5.15;;
43449;SDS011;29041;42.266;23.110;2023-07-31T03:26:06;5.22;;;4.22;;
43449;SDS011;29041;42.266;23.110;2023-07-31T03:28:54;5.00;;;4.47;;
43449;SDS011;29041;42.266;23.110;2023-07-31T03:31:41;5.10;;;3.65;;
43449;SDS011;29041;42.266;23.110;2023-07-31T03:34:28;4.85;;;3.70;;
43449;SDS011;29041;42.266;23.110;2023-07-31T03:37:17;6.70;;;3.70;;
43449;SDS011;29041;42.266;23.110;2023-07-31T03:40:06;5.88;;;3.67;;
43449;SDS011;29041;42.266;23.110;2023-07-31T03:42:54;7.07;;;4.20;;
43449;SDS011;29041;42.266;23.110;2023-07-31T03:45:41;5.75;;;4.57;;
43449;SDS011;29041;42.266;23.110;2023-07-31T03:48:28;7.88;;;4.25;;
43449;SDS011;29041;42.266;23.110;2023-07-31T03:51:15;4.90;;;3.42;;
43449;SDS011;29041;42.266;23.110;2023-07-31T03:54:03;6.20;;;3.70;;
43449;SDS011;29041;42.266;23.110;2023-07-31T03:56:51;4.82;;;4.00;;
43449;SDS011;29041;42.266;23.110;2023-07-31T03:59:38;5.78;;;4.68;;
43449;SDS011;29041;42.266;23.110;2023-07-31T04:02:25;6.55;;;4.40;;
43449;SDS011;29041;42.266;23.110;2023-07-31T04:05:13;6.43;;;5.05;;
43449;SDS011;29041;42.266;23.110;2023-07-31T04:08:00;7.68;;;4.07;;
43449;SDS011;29041;42.266;23.110;2023-07-31T04:10:47;8.52;;;5.65;;
43449;SDS011;29041;42.266;23.110;2023-07-31T04:13:35;9.55;;;5.97;;
43449;SDS011;29041;42.266;23.110;2023-07-31T04:16:23;6.97;;;3.95;;
43449;SDS011;29041;42.266;23.110;2023-07-31T04:19:10;9.25;;;4.25;;
43449;SDS011;29041;42.266;23.110;2023-07-31T04:22:01;6.22;;;4.53;;
43449;SDS011;29041;42.266;23.110;2023-07-31T04:24:49;7.80;;;4.93;;
43449;SDS011;29041;42.266;23.110;2023-07-31T04:27:36;7.10;;;5.65;;
43449;SDS011;29041;42.266;23.110;2023-07-31T04:30:25;8.05;;;5.50;;
43449;SDS011;29041;42.266;23.110;2023-07-31T04:33:12;8.68;;;5.55;;
43449;SDS011;29041;42.266;23.110;2023-07-31T04:35:59;6.03;;;5.43;;
43449;SDS011;29041;42.266;23.110;2023-07-31T04:38:46;8.30;;;5.65;;
43449;SDS011;29041;42.266;23.110;2023-07-31T04:41:34;8.02;;;5.65;;
43449;SDS011;29041;42.266;23.110;2023-07-31T04:44:21;7.78;;;5.68;;
43449;SDS011;29041;42.266;23.110;2023-07-31T04:47:10;8.30;;;6.07;;
43449;SDS011;29041;42.266;23.110;2023-07-31T04:49:57;8.70;;;5.28;;
43449;SDS011;29041;42.266;23.110;2023-07-31T04:52:44;10.20;;;5.70;;
43449;SDS011;29041;42.266;23.110;2023-07-31T04:55:31;9.38;;;6.75;;
43449;SDS011;29041;42.266;23.110;2023-07-31T05:03:28;7.90;;;6.45;;
43449;SDS011;29041;42.266;23.110;2023-07-31T05:06:16;8.18;;;6.75;;
43449;SDS011;29041;42.266;23.110;2023-07-31T05:09:07;11.32;;;7.40;;
43449;SDS011;29041;42.266;23.110;2023-07-31T05:11:56;10.52;;;6.95;;
43449;SDS011;29041;42.266;23.110;2023-07-31T05:14:43;9.60;;;6.72;;
43449;SDS011;29041;42.266;23.110;2023-07-31T05:17:32;8.32;;;6.13;;
43449;SDS011;29041;42.266;23.110;2023-07-31T05:20:21;10.95;;;7.13;;
43449;SDS011;29041;42.266;23.110;2023-07-31T05:23:08;14.75;;;9.00;;
43449;SDS011;29041;42.266;23.110;2023-07-31T05:25:55;12.25;;;8.68;;
43449;SDS011;29041;42.266;23.110;2023-07-31T05:28:48;11.10;;;8.45;;
43449;SDS011;29041;42.266;23.110;2023-07-31T05:31:35;12.00;;;7.25;;
43449;SDS011;29041;42.266;23.110;2023-07-31T05:34:23;10.48;;;7.22;;
43449;SDS011;29041;42.266;23.110;2023-07-31T05:37:12;13.73;;;7.35;;
43449;SDS011;29041;42.266;23.110;2023-07-31T05:39:59;12.25;;;6.85;;
43449;SDS011;29041;42.266;23.110;2023-07-31T05:42:51;11.73;;;7.05;;
43449;SDS011;29041;42.266;23.110;2023-07-31T05:45:38;10.27;;;7.20;;
43449;SDS011;29041;42.266;23.110;2023-07-31T05:48:26;9.95;;;6.47;;
43449;SDS011;29041;42.266;23.110;2023-07-31T05:51:13;10.93;;;7.32;;
43449;SDS011;29041;42.266;23.110;2023-07-31T05:54:02;13.38;;;8.63;;
43449;SDS011;29041;42.266;23.110;2023-07-31T05:56:49;9.38;;;7.65;;
43449;SDS011;29041;42.266;23.110;2023-07-31T05:59:36;12.38;;;7.70;;
43449;SDS011;29041;42.266;23.110;2023-07-31T06:02:23;11.57;;;7.03;;
43449;SDS011;29041;42.266;23.110;2023-07-31T06:05:10;11.25;;;7.50;;
43449;SDS011;29041;42.266;23.110;2023-07-31T06:07:58;12.90;;;7.85;;
43449;SDS011;29041;42.266;23.110;2023-07-31T06:10:46;10.68;;;7.90;;
43449;SDS011;29041;42.266;23.110;2023-07-31T06:13:34;10.13;;;7.10;;
43449;SDS011;29041;42.266;23.110;2023-07-31T06:16:21;8.85;;;6.07;;
43449;SDS011;29041;42.266;23.110;2023-07-31T06:19:08;10.10;;;6.63;;
43449;SDS011;29041;42.266;23.110;2023-07-31T06:21:55;9.23;;;6.15;;
43449;SDS011;29041;42.266;23.110;2023-07-31T06:24:42;8.38;;;5.55;;
43449;SDS011;29041;42.266;23.110;2023-07-31T06:27:31;8.95;;;6.32;;
43449;SDS011;29041;42.266;23.110;2023-07-31T06:30:18;9.85;;;6.80;;
43449;SDS011;29041;42.266;23.110;2023-07-31T06:33:05;8.05;;;5.78;;
43449;SDS011;29041;42.266;23.110;2023-07-31T06:35:52;8.95;;;6.65;;
43449;SDS011;29041;42.266;23.110;2023-07-31T06:38:40;12.93;;;7.97;;
43449;SDS011;29041;42.266;23.110;2023-07-31T06:41:27;8.20;;;6.82;;
43449;SDS011;29041;42.266;23.110;2023-07-31T06:44:15;9.25;;;6.25;;
43449;SDS011;29041;42.266;23.110;2023-07-31T06:47:03;7.30;;;5.70;;
43449;SDS011;29041;42.266;23.110;2023-07-31T06:49:50;9.20;;;6.63;;
43449;SDS011;29041;42.266;23.110;2023-07-31T06:52:37;9.88;;;6.78;;
43449;SDS011;29041;42.266;23.110;2023-07-31T06:55:25;7.45;;;5.78;;
43449;SDS011;29041;42.266;23.110;2023-07-31T06:58:12;7.65;;;6.07;;
43449;SDS011;29041;42.266;23.110;2023-07-31T07:01:01;9.93;;;6.25;;
43449;SDS011;29041;42.266;23.110;2023-07-31T07:03:48;6.82;;;5.55;;
43449;SDS011;29041;42.266;23.110;2023-07-31T07:06:36;6.75;;;5.47;;
43449;SDS011;29041;42.266;23.110;2023-07-31T07:09:23;10.18;;;6.32;;
43449;SDS011;29041;42.266;23.110;2023-07-31T07:12:10;6.20;;;4.63;;
43449;SDS011;29041;42.266;23.110;2023-07-31T07:14:57;7.50;;;3.95;;
43449;SDS011;29041;42.266;23.110;2023-07-31T07:17:46;6.85;;;4.78;;
43449;SDS011;29041;42.266;23.110;2023-07-31T07:20:33;8.02;;;5.50;;
43449;SDS011;29041;42.266;23.110;2023-07-31T07:23:20;6.97;;;4.97;;
43449;SDS011;29041;42.266;23.110;2023-07-31T07:26:07;6.20;;;4.35;;
43449;SDS011;29041;42.266;23.110;2023-07-31T07:28:54;5.72;;;4.18;;
43449;SDS011;29041;42.266;23.110;2023-07-31T07:31:43;4.72;;;3.42;;
43449;SDS011;29041;42.266;23.110;2023-07-31T07:34:31;6.07;;;4.40;;
43449;SDS011;29041;42.266;23.110;2023-07-31T07:37:18;6.13;;;3.92;;
43449;SDS011;29041;42.266;23.110;2023-07-31T07:40:06;10.32;;;4.13;;
43449;SDS011;29041;42.266;23.110;2023-07-31T07:42:54;6.10;;;3.63;;
43449;SDS011;29041;42.266;23.110;2023-07-31T07:45:41;4.95;;;3.75;;
43449;SDS011;29041;42.266;23.110;2023-07-31T07:48:28;5.78;;;4.10;;
43449;SDS011;29041;42.266;23.110;2023-07-31T07:51:16;4.75;;;3.70;;
43449;SDS011;29041;42.266;23.110;2023-07-31T07:54:04;4.68;;;3.00;;
43449;SDS011;29041;42.266;23.110;2023-07-31T07:56:51;3.28;;;2.72;;
43449;SDS011;29041;42.266;23.110;2023-07-31T07:59:38;4.97;;;3.05;;
43449;SDS011;29041;42.266;23.110;2023-07-31T08:02:25;3.10;;;2.08;;
43449;SDS011;29041;42.266;23.110;2023-07-31T08:05:12;2.33;;;1.85;;
43449;SDS011;29041;42.266;23.110;2023-07-31T08:08:01;3.05;;;2.22;;
43449;SDS011;29041;42.266;23.110;2023-07-31T08:10:48;2.30;;;1.75;;
43449;SDS011;29041;42.266;23.110;2023-07-31T08:13:35;2.47;;;2.28;;
43449;SDS011;29041;42.266;23.110;2023-07-31T08:16:23;2.88;;;2.08;;
43449;SDS011;29041;42.266;23.110;2023-07-31T08:19:10;5.32;;;3.10;;
43449;SDS011;29041;42.266;23.110;2023-07-31T08:21:57;2.70;;;1.85;;
43449;SDS011;29041;42.266;23.110;2023-07-31T08:24:46;1.98;;;1.77;;
43449;SDS011;29041;42.266;23.110;2023-07-31T08:27:33;6.20;;;2.67;;
43449;SDS011;29041;42.266;23.110;2023-07-31T08:30:20;4.03;;;3.08;;
43449;SDS011;29041;42.266;23.110;2023-07-31T08:33:08;3.53;;;2.90;;
43449;SDS011;29041;42.266;23.110;2023-07-31T08:35:55;8.55;;;2.92;;
43449;SDS011;29041;42.266;23.110;2023-07-31T08:38:42;3.08;;;2.45;;
43449;SDS011;29041;42.266;23.110;2023-07-31T08:41:31;4.85;;;2.65;;
43449;SDS011;29041;42.266;23.110;2023-07-31T08:44:18;3.50;;;2.30;;
43449;SDS011;29041;42.266;23.110;2023-07-31T08:47:05;3.25;;;2.28;;
43449;SDS011;29041;42.266;23.110;2023-07-31T08:49:53;2.53;;;1.52;;
43449;SDS011;29041;42.266;23.110;2023-07-31T08:52:42;1.95;;;1.50;;
43449;SDS011;29041;42.266;23.110;2023-07-31T08:55:29;2.97;;;2.03;;
43449;SDS011;29041;42.266;23.110;2023-07-31T08:58:19;3.22;;;1.38;;
43449;SDS011;29041;42.266;23.110;2023-07-31T09:01:06;1.92;;;0.98;;
43449;SDS011;29041;42.266;23.110;2023-07-31T09:03:54;1.77;;;1.00;;
43449;SDS011;29041;42.266;23.110;2023-07-31T09:06:42;2.70;;;1.10;;
43449;SDS011;29041;42.266;23.110;2023-07-31T09:09:31;1.48;;;1.00;;
43449;SDS011;29041;42.266;23.110;2023-07-31T09:12:18;1.63;;;1.10;;
43449;SDS011;29041;42.266;23.110;2023-07-31T09:15:07;1.60;;;1.33;;
43449;SDS011;29041;42.266;23.110;2023-07-31T09:17:58;2.05;;;1.60;;
43449;SDS011;29041;42.266;23.110;2023-07-31T09:21:00;1.50;;;0.98;;
43449;SDS011;29041;42.266;23.110;2023-07-31T09:23:49;1.95;;;1.48;;
43449;SDS011;29041;42.266;23.110;2023-07-31T09:26:39;3.50;;;2.05;;
43449;SDS011;29041;42.266;23.110;2023-07-31T09:29:26;1.80;;;1.10;;
43449;SDS011;29041;42.266;23.110;2023-07-31T09:32:16;1.42;;;1.25;;
43449;SDS011;29041;42.266;23.110;2023-07-31T09:35:11;1.48;;;1.35;;
43449;SDS011;29041;42.266;23.110;2023-07-31T09:38:00;1.10;;;1.00;;
43449;SDS011;29041;42.266;23.110;2023-07-31T09:40:52;2.63;;;1.10;;
43449;SDS011;29041;42.266;23.110;2023-07-31T09:43:39;1.90;;;1.13;;
43449;SDS011;29041;42.266;23.110;2023-07-31T09:46:26;1.27;;;0.95;;
43449;SDS011;29041;42.266;23.110;2023-07-31T09:49:15;1.33;;;1.15;;
43449;SDS011;29041;42.266;23.110;2023-07-31T09:52:03;1.23;;;0.95;;
43449;SDS011;29041;42.266;23.110;2023-07-31T09:54:58;1.50;;;1.40;;
43449;SDS011;29041;42.266;23.110;2023-07-31T09:57:46;1.00;;;0.90;;
43449;SDS011;29041;42.266;23.110;2023-07-31T10:00:35;1.67;;;1.15;;
43449;SDS011;29041;42.266;23.110;2023-07-31T10:03:22;2.00;;;0.90;;
43449;SDS011;29041;42.266;23.110;2023-07-31T10:06:11;1.45;;;0.70;;
43449;SDS011;29041;42.266;23.110;2023-07-31T10:09:01;1.30;;;1.20;;
43449;SDS011;29041;42.266;23.110;2023-07-31T10:11:52;1.10;;;0.80;;
43449;SDS011;29041;42.266;23.110;2023-07-31T10:14:42;1.00;;;0.65;;
43449;SDS011;29041;42.266;23.110;2023-07-31T10:17:30;0.77;;;0.57;;
43449;SDS011;29041;42.266;23.110;2023-07-31T10:20:18;1.25;;;0.80;;
43449;SDS011;29041;42.266;23.110;2023-07-31T10:23:06;1.02;;;0.90;;
43449;SDS011;29041;42.266;23.110;2023-07-31T10:25:55;1.63;;;0.60;;
43449;SDS011;29041;42.266;23.110;2023-07-31T10:28:45;0.65;;;0.45;;
43449;SDS011;29041;42.266;23.110;2023-07-31T10:31:34;0.63;;;0.52;;
43449;SDS011;29041;42.266;23.110;2023-07-31T10:34:22;2.03;;;0.90;;
43449;SDS011;29041;42.266;23.110;2023-07-31T10:37:19;1.00;;;0.77;;
43449;SDS011;29041;42.266;23.110;2023-07-31T10:40:12;0.75;;;0.55;;
43449;SDS011;29041;42.266;23.110;2023-07-31T10:43:03;1.42;;;0.82;;
43449;SDS011;29041;42.266;23.110;2023-07-31T10:45:50;1.75;;;0.65;;
43449;SDS011;29041;42.266;23.110;2023-07-31T10:48:38;1.08;;;0.70;;
43449;SDS011;29041;42.266;23.110;2023-07-31T10:51:32;2.47;;;1.15;;
43449;SDS011;29041;42.266;23.110;2023-07-31T10:54:20;0.90;;;0.52;;
43449;SDS011;29041;42.266;23.110;2023-07-31T10:57:19;0.85;;;0.63;;
43449;SDS011;29041;42.266;23.110;2023-07-31T11:00:17;1.48;;;0.73;;
43449;SDS011;29041;42.266;23.110;2023-07-31T11:03:05;1.00;;;0.57;;
43449;SDS011;29041;42.266;23.110;2023-07-31T11:05:59;0.90;;;0.65;;
43449;SDS011;29041;42.266;23.110;2023-07-31T11:08:49;2.10;;;1.15;;
43449;SDS011;29041;42.266;23.110;2023-07-31T11:11:37;2.13;;;1.00;;
43449;SDS011;29041;42.266;23.110;2023-07-31T11:14:26;1.05;;;0.65;;
43449;SDS011;29041;42.266;23.110;2023-07-31T11:17:13;3.35;;;1.25;;
43449;SDS011;29041;42.266;23.110;2023-07-31T11:20:00;1.85;;;0.90;;
43449;SDS011;29041;42.266;23.110;2023-07-31T11:22:47;2.17;;;0.70;;
43449;SDS011;29041;42.266;23.110;2023-07-31T11:25:36;1.52;;;0.70;;
43449;SDS011;29041;42.266;23.110;2023-07-31T11:28:23;1.77;;;0.90;;
43449;SDS011;29041;42.266;23.110;2023-07-31T11:31:12;0.93;;;0.55;;
43449;SDS011;29041;42.266;23.110;2023-07-31T11:34:08;1.00;;;0.80;;
43449;SDS011;29041;42.266;23.110;2023-07-31T11:36:56;1.27;;;0.75;;
43449;SDS011;29041;42.266;23.110;2023-07-31T11:39:43;1.13;;;0.80;;
43449;SDS011;29041;42.266;23.110;2023-07-31T11:42:30;2.55;;;0.98;;
43449;SDS011;29041;42.266;23.110;2023-07-31T11:45:17;0.77;;;0.45;;
43449;SDS011;29041;42.266;23.110;2023-07-31T11:48:06;1.40;;;0.80;;
43449;SDS011;29041;42.266;23.110;2023-07-31T11:50:54;0.98;;;0.75;;
43449;SDS011;29041;42.266;23.110;2023-07-31T11:53:44;1.13;;;0.60;;
43449;SDS011;29041;42.266;23.110;2023-07-31T11:56:33;0.82;;;0.70;;
43449;SDS011;29041;42.266;23.110;2023-07-31T11:59:20;1.40;;;1.00;;
43449;SDS011;29041;42.266;23.110;2023-07-31T12:02:07;1.10;;;0.70;;
43449;SDS011;29041;42.266;23.110;2023-07-31T12:04:56;1.20;;;0.90;;
43449;SDS011;29041;42.266;23.110;2023-07-31T12:07:44;2.45;;;0.93;;
43449;SDS011;29041;42.266;23.110;2023-07-31T12:10:33;0.82;;;0.60;;
43449;SDS011;29041;42.266;23.110;2023-07-31T12:13:20;1.15;;;0.55;;
43449;SDS011;29041;42.266;23.110;2023-07-31T12:16:08;1.52;;;1.00;;
43449;SDS011;29041;42.266;23.110;2023-07-31T12:18:55;1.70;;;0.73;;
43449;SDS011;29041;42.266;23.110;2023-07-31T12:21:44;1.73;;;0.75;;
43449;SDS011;29041;42.266;23.110;2023-07-31T12:24:31;0.70;;;0.57;;
43449;SDS011;29041;42.266;23.110;2023-07-31T12:27:23;0.55;;;0.50;;
43449;SDS011;29041;42.266;23.110;2023-07-31T12:30:25;1.30;;;0.88;;
43449;SDS011;29041;42.266;23.110;2023-07-31T12:33:13;0.77;;;0.52;;
43449;SDS011;29041;42.266;23.110;2023-07-31T12:36:02;1.50;;;0.70;;
43449;SDS011;29041;42.266;23.110;2023-07-31T12:38:52;1.48;;;0.82;;
43449;SDS011;29041;42.266;23.110;2023-07-31T12:41:39;1.38;;;1.02;;
43449;SDS011;29041;42.266;23.110;2023-07-31T12:44:26;2.45;;;1.42;;
43449;SDS011;29041;42.266;23.110;2023-07-31T12:47:13;1.65;;;1.25;;
43449;SDS011;29041;42.266;23.110;2023-07-31T12:50:01;2.28;;;1.30;;
43449;SDS011;29041;42.266;23.110;2023-07-31T12:52:48;1.63;;;1.17;;
43449;SDS011;29041;42.266;23.110;2023-07-31T12:55:37;1.90;;;1.33;;
43449;SDS011;29041;42.266;23.110;2023-07-31T12:58:24;1.77;;;1.25;;
43449;SDS011;29041;42.266;23.110;2023-07-31T13:01:11;1.38;;;1.15;;
43449;SDS011;29041;42.266;23.110;2023-07-31T13:03:58;1.60;;;0.98;;
43449;SDS011;29041;42.266;23.110;2023-07-31T13:06:45;1.90;;;1.20;;
43449;SDS011;29041;42.266;23.110;2023-07-31T13:09:32;1.80;;;1.08;;
43449;SDS011;29041;42.266;23.110;2023-07-31T13:12:21;1.77;;;1.13;;
43449;SDS011;29041;42.266;23.110;2023-07-31T13:15:08;1.45;;;1.10;;
43449;SDS011;29041;42.266;23.110;2023-07-31T13:17:55;2.33;;;1.73;;
43449;SDS011;29041;42.266;23.110;2023-07-31T13:20:43;1.73;;;1.33;;
43449;SDS011;29041;42.266;23.110;2023-07-31T13:23:30;1.85;;;1.25;;
43449;SDS011;29041;42.266;23.110;2023-07-31T13:26:17;1.60;;;1.35;;
43449;SDS011;29041;42.266;23.110;2023-07-31T13:29:05;1.75;;;1.50;;
43449;SDS011;29041;42.266;23.110;2023-07-31T13:31:52;2.58;;;1.98;;
43449;SDS011;29041;42.266;23.110;2023-07-31T13:34:39;3.28;;;2.10;;
43449;SDS011;29041;42.266;23.110;2023-07-31T13:37:27;3.00;;;2.08;;
43449;SDS011;29041;42.266;23.110;2023-07-31T13:40:14;3.33;;;2.28;;
43449;SDS011;29041;42.266;23.110;2023-07-31T13:43:01;3.45;;;2.47;;
43449;SDS011;29041;42.266;23.110;2023-07-31T13:45:50;2.97;;;2.42;;
43449;SDS011;29041;42.266;23.110;2023-07-31T13:48:37;5.07;;;2.38;;
43449;SDS011;29041;42.266;23.110;2023-07-31T13:51:24;2.25;;;2.05;;
43449;SDS011;29041;42.266;23.110;2023-07-31T13:54:12;5.15;;;2.30;;
43449;SDS011;29041;42.266;23.110;2023-07-31T13:57:01;3.22;;;2.35;;
43449;SDS011;29041;42.266;23.110;2023-07-31T13:59:48;3.40;;;2.78;;
43449;SDS011;29041;42.266;23.110;2023-07-31T14:02:37;3.65;;;2.92;;
43449;SDS011;29041;42.266;23.110;2023-07-31T14:05:24;3.13;;;2.70;;
43449;SDS011;29041;42.266;23.110;2023-07-31T14:08:11;3.90;;;2.70;;
43449;SDS011;29041;42.266;23.110;2023-07-31T14:10:58;4.47;;;3.10;;
43449;SDS011;29041;42.266;23.110;2023-07-31T14:13:45;2.95;;;2.67;;
43449;SDS011;29041;42.266;23.110;2023-07-31T14:16:32;4.35;;;3.40;;
43449;SDS011;29041;42.266;23.110;2023-07-31T14:19:22;4.25;;;3.08;;
43449;SDS011;29041;42.266;23.110;2023-07-31T14:22:10;3.67;;;3.20;;
43449;SDS011;29041;42.266;23.110;2023-07-31T14:24:57;3.33;;;2.55;;
43449;SDS011;29041;42.266;23.110;2023-07-31T14:27:44;6.40;;;3.58;;
43449;SDS011;29041;42.266;23.110;2023-07-31T14:30:31;5.47;;;3.10;;
43449;SDS011;29041;42.266;23.110;2023-07-31T14:33:19;3.88;;;3.05;;
43449;SDS011;29041;42.266;23.110;2023-07-31T14:36:07;4.75;;;4.13;;
43449;SDS011;29041;42.266;23.110;2023-07-31T14:38:54;3.55;;;2.80;;
43449;SDS011;29041;42.266;23.110;2023-07-31T14:41:42;3.92;;;2.60;;
43449;SDS011;29041;42.266;23.110;2023-07-31T14:44:29;3.28;;;2.75;;
43449;SDS011;29041;42.266;23.110;2023-07-31T14:47:16;3.72;;;2.75;;
43449;SDS011;29041;42.266;23.110;2023-07-31T14:50:04;3.72;;;3.38;;
43449;SDS011;29041;42.266;23.110;2023-07-31T14:52:53;5.85;;;3.25;;
43449;SDS011;29041;42.266;23.110;2023-07-31T14:55:40;4.25;;;3.38;;
43449;SDS011;29041;42.266;23.110;2023-07-31T14:58:27;3.28;;;2.97;;
43449;SDS011;29041;42.266;23.110;2023-07-31T15:01:14;4.70;;;3.78;;
43449;SDS011;29041;42.266;23.110;2023-07-31T15:04:01;3.67;;;2.80;;
43449;SDS011;29041;42.266;23.110;2023-07-31T15:06:51;5.25;;;3.85;;
43449;SDS011;29041;42.266;23.110;2023-07-31T15:09:40;3.28;;;2.50;;
43449;SDS011;29041;42.266;23.110;2023-07-31T15:12:27;7.97;;;5.72;;
43449;SDS011;29041;42.266;23.110;2023-07-31T15:15:15;10.05;;;3.65;;
43449;SDS011;29041;42.266;23.110;2023-07-31T15:18:02;3.58;;;2.83;;
43449;SDS011;29041;42.266;23.110;2023-07-31T15:20:49;5.28;;;3.42;;
43449;SDS011;29041;42.266;23.110;2023-07-31T15:23:36;4.43;;;3.35;;
43449;SDS011;29041;42.266;23.110;2023-07-31T15:26:25;2.55;;;1.98;;
43449;SDS011;29041;42.266;23.110;2023-07-31T15:29:12;4.05;;;2.75;;
43449;SDS011;29041;42.266;23.110;2023-07-31T15:32:05;3.42;;;2.60;;
43449;SDS011;29041;42.266;23.110;2023-07-31T15:34:52;3.78;;;2.70;;
43449;SDS011;29041;42.266;23.110;2023-07-31T15:37:39;5.20;;;3.78;;
43449;SDS011;29041;42.266;23.110;2023-07-31T15:40:27;7.32;;;2.40;;
43449;SDS011;29041;42.266;23.110;2023-07-31T15:43:15;11.82;;;7.50;;
43449;SDS011;29041;42.266;23.110;2023-07-31T15:46:05;5.03;;;2.50;;
43449;SDS011;29041;42.266;23.110;2023-07-31T15:48:52;6.40;;;4.07;;
43449;SDS011;29041;42.266;23.110;2023-07-31T15:51:39;2.80;;;2.13;;
43449;SDS011;29041;42.266;23.110;2023-07-31T15:54:26;3.00;;;2.25;;
43449;SDS011;29041;42.266;23.110;2023-07-31T15:57:13;7.47;;;4.97;;
43449;SDS011;29041;42.266;23.110;2023-07-31T16:00:02;1.95;;;1.75;;
43449;SDS011;29041;42.266;23.110;2023-07-31T16:02:49;2.00;;;1.77;;
43449;SDS011;29041;42.266;23.110;2023-07-31T16:05:36;2.67;;;2.00;;
43449;SDS011;29041;42.266;23.110;2023-07-31T16:08:24;2.70;;;1.90;;
43449;SDS011;29041;42.266;23.110;2023-07-31T16:11:11;2.38;;;2.03;;
43449;SDS011;29041;42.266;23.110;2023-07-31T16:14:04;1.77;;;1.45;;
43449;SDS011;29041;42.266;23.110;2023-07-31T16:16:52;2.30;;;1.75;;
43449;SDS011;29041;42.266;23.110;2023-07-31T16:19:39;2.05;;;1.58;;
43449;SDS011;29041;42.266;23.110;2023-07-31T16:22:26;2.38;;;1.80;;
43449;SDS011;29041;42.266;23.110;2023-07-31T16:25:14;5.45;;;1.33;;
43449;SDS011;29041;42.266;23.110;2023-07-31T16:28:01;1.30;;;1.20;;
43449;SDS011;29041;42.266;23.110;2023-07-31T16:30:48;3.08;;;1.83;;
43449;SDS011;29041;42.266;23.110;2023-07-31T16:33:38;1.70;;;1.20;;
43449;SDS011;29041;42.266;23.110;2023-07-31T16:36:25;1.92;;;1.20;;
43449;SDS011;29041;42.266;23.110;2023-07-31T16:39:12;1.35;;;1.10;;
43449;SDS011;29041;42.266;23.110;2023-07-31T16:41:59;3.95;;;2.08;;